createdAt,value
2018-08-06T00:01:05.909Z,52.50
2018-08-06T00:03:37.663Z,51.70
2018-08-06T00:06:09.218Z,51.60
2018-08-06T00:08:40.728Z,51.60
2018-08-06T00:11:12.216Z,51.60
2018-08-06T00:13:43.747Z,51.40
2018-08-06T00:16:15.348Z,51.50
2018-08-06T00:18:46.797Z,51.40
2018-08-06T00:21:18.303Z,51.40
2018-08-06T00:23:49.783Z,51.10
2018-08-06T00:26:21.797Z,51.60
2018-08-06T00:33:55.852Z,50.50
2018-08-06T00:36:26.612Z,51.40
2018-08-06T00:38:58.218Z,51.30
2018-08-06T00:41:29.773Z,51.60
2018-08-06T00:44:01.284Z,51.70
2018-08-06T00:46:32.758Z,51.10
2018-08-06T00:49:04.740Z,51.60
2018-08-06T00:51:36.213Z,51.20
2018-08-06T00:54:07.683Z,51.40
2018-08-06T00:56:39.220Z,51.70
2018-08-06T00:59:10.774Z,51.80
2018-08-06T01:01:42.313Z,51.70
2018-08-06T01:04:13.788Z,51.70
2018-08-06T01:06:45.232Z,51.70
2018-08-06T01:09:16.746Z,51.60
2018-08-06T01:11:48.387Z,51.80
2018-08-06T01:14:19.757Z,51.40
2018-08-06T01:16:51.420Z,51.80
2018-08-06T01:19:22.805Z,51.40
2018-08-06T01:21:54.393Z,52.00
2018-08-06T01:24:25.745Z,51.40
2018-08-06T01:26:57.044Z,51.90
2018-08-06T01:29:28.608Z,51.70
2018-08-06T01:31:59.894Z,51.90
2018-08-06T01:34:30.583Z,51.90
2018-08-06T01:37:02.545Z,52.10
2018-08-06T01:39:34.219Z,52.30
2018-08-06T01:42:05.699Z,52.30
2018-08-06T01:44:37.418Z,52.30
2018-08-06T01:47:08.903Z,52.20
2018-08-06T01:49:40.389Z,52.30
2018-08-06T01:52:11.864Z,52.30
2018-08-06T01:54:42.560Z,52.30
2018-08-06T01:57:14.224Z,52.20
2018-08-06T01:59:45.719Z,52.20
2018-08-06T02:02:17.223Z,52.10
2018-08-06T02:04:48.710Z,52.20
2018-08-06T02:07:20.322Z,52.10
2018-08-06T02:09:51.806Z,52.40
2018-08-06T02:12:23.375Z,52.20
2018-08-06T02:14:54.785Z,51.70
2018-08-06T02:17:26.322Z,52.20
2018-08-06T02:19:57.854Z,51.90
2018-08-06T02:22:28.349Z,52.10
2018-08-06T02:24:59.775Z,52.10
2018-08-06T02:27:31.437Z,52.30
2018-08-06T02:30:02.758Z,51.90
2018-08-06T02:37:36.722Z,51.30
2018-08-06T02:40:11.202Z,51.80
2018-08-06T02:42:43.309Z,52.50
2018-08-06T02:45:14.717Z,52.30
2018-08-06T02:47:46.402Z,52.40
2018-08-06T02:50:17.911Z,52.00
2018-08-06T02:52:49.453Z,52.30
2018-08-06T02:55:20.818Z,52.30
2018-08-06T02:57:51.584Z,52.30
2018-08-06T03:00:23.222Z,52.10
2018-08-06T03:02:54.765Z,52.40
2018-08-06T03:05:26.229Z,52.50
2018-08-06T03:07:57.718Z,52.10
2018-08-06T03:10:29.300Z,52.30
2018-08-06T03:13:00.753Z,52.30
2018-08-06T03:15:32.282Z,52.40
2018-08-06T03:18:03.749Z,52.10
2018-08-06T03:20:35.382Z,52.30
2018-08-06T03:23:06.863Z,52.00
2018-08-06T03:25:37.608Z,52.50
2018-08-06T03:28:08.972Z,52.60
2018-08-06T03:30:40.574Z,52.50
2018-08-06T03:33:11.985Z,52.50
2018-08-06T03:35:43.603Z,52.50
2018-08-06T03:38:15.725Z,52.30
2018-08-06T03:40:47.327Z,52.40
2018-08-06T03:43:18.819Z,52.10
2018-08-06T03:45:49.583Z,52.30
2018-08-06T03:48:21.008Z,52.00
2018-08-06T03:50:52.680Z,52.30
2018-08-06T03:53:24.200Z,52.40
2018-08-06T03:55:55.709Z,52.80
2018-08-06T03:58:27.308Z,53.00
2018-08-06T04:00:58.692Z,53.20
2018-08-06T04:03:30.859Z,53.20
2018-08-06T04:06:02.644Z,53.30
2018-08-06T04:08:34.207Z,53.10
2018-08-06T04:11:06.553Z,53.40
2018-08-06T04:13:38.283Z,53.50
2018-08-06T04:16:10.316Z,53.60
2018-08-06T04:18:41.853Z,54.00
2018-08-06T04:21:12.674Z,54.00
2018-08-06T04:23:44.220Z,53.60
2018-08-06T04:29:05.884Z,54.50
2018-08-06T04:31:37.577Z,53.80
2018-08-06T04:34:09.228Z,53.60
2018-08-06T04:36:40.736Z,53.40
2018-08-06T04:39:12.319Z,53.30
2018-08-06T04:41:43.748Z,52.80
2018-08-06T04:44:15.333Z,53.10
2018-08-06T04:46:46.887Z,52.70
2018-08-06T04:49:17.660Z,53.00
2018-08-06T04:51:49.077Z,52.90
2018-08-06T04:54:20.661Z,52.80
2018-08-06T04:56:52.220Z,52.80
2018-08-06T04:59:23.692Z,52.50
2018-08-06T05:01:55.241Z,52.10
2018-08-06T05:04:26.864Z,51.90
2018-08-06T05:06:57.610Z,51.70
2018-08-06T05:09:33.224Z,51.30
2018-08-06T05:12:04.698Z,51.40
2018-08-06T05:14:36.684Z,51.20
2018-08-06T05:17:08.686Z,51.10
2018-08-06T05:19:40.335Z,51.20
2018-08-06T05:22:11.832Z,51.00
2018-08-06T05:24:42.546Z,51.10
2018-08-06T05:27:14.223Z,50.90
2018-08-06T05:29:45.736Z,51.00
2018-08-06T05:37:19.814Z,50.10
2018-08-06T05:39:51.777Z,50.90
2018-08-06T05:42:23.663Z,50.80
2018-08-06T05:44:55.211Z,50.90
2018-08-06T05:47:26.899Z,50.70
2018-08-06T05:49:57.523Z,50.70
2018-08-06T05:52:29.390Z,51.40
2018-08-06T05:55:01.212Z,50.40
2018-08-06T05:57:32.751Z,49.60
2018-08-06T06:00:04.312Z,50.10
2018-08-06T06:02:35.916Z,49.80
2018-08-06T06:05:07.527Z,50.30
2018-08-06T06:07:39.234Z,50.00
2018-08-06T06:10:14.750Z,49.70
2018-08-06T06:12:46.670Z,49.80
2018-08-06T06:15:18.787Z,49.40
2018-08-06T06:17:50.313Z,49.60
2018-08-06T06:20:21.790Z,48.90
2018-08-06T06:22:53.044Z,49.50
2018-08-06T06:25:25.733Z,48.70
2018-08-06T06:27:57.320Z,49.00
2018-08-06T06:30:28.927Z,49.50
2018-08-06T06:33:01.216Z,48.40
2018-08-06T06:35:32.737Z,48.90
2018-08-06T06:38:04.308Z,48.20
2018-08-06T06:40:35.726Z,47.90
2018-08-06T06:43:07.314Z,47.70
2018-08-06T06:45:38.796Z,47.90
2018-08-06T06:48:10.233Z,47.00
2018-08-06T06:50:41.763Z,46.60
2018-08-06T06:53:13.419Z,47.30
2018-08-06T06:55:44.778Z,46.40
2018-08-06T06:58:16.298Z,46.90
2018-08-06T07:00:47.818Z,46.40
2018-08-06T07:03:18.586Z,47.70
2018-08-06T07:05:50.232Z,46.20
2018-08-06T07:08:21.857Z,46.50
2018-08-06T07:10:52.615Z,46.90
2018-08-06T07:13:24.211Z,47.40
2018-08-06T07:15:55.770Z,46.90
2018-08-06T07:18:27.589Z,47.00
2018-08-06T07:20:58.872Z,46.80
2018-08-06T07:23:29.619Z,46.30
2018-08-06T07:26:01.887Z,46.90
2018-08-06T07:28:32.511Z,47.00
2018-08-06T07:31:04.218Z,46.90
2018-08-06T07:33:35.899Z,46.90
2018-08-06T07:36:07.693Z,47.20
2018-08-06T07:38:39.400Z,47.00
2018-08-06T07:41:11.223Z,47.10
2018-08-06T07:43:42.741Z,46.80
2018-08-06T07:46:14.368Z,47.40
2018-08-06T07:48:46.219Z,46.00
2018-08-06T07:51:17.791Z,46.60
2018-08-06T07:53:49.295Z,46.80
2018-08-06T07:56:20.752Z,45.90
2018-08-06T07:58:52.790Z,46.50
2018-08-06T08:01:24.446Z,45.60
2018-08-06T08:03:56.305Z,45.00
2018-08-06T08:06:27.894Z,44.30
2018-08-06T08:08:58.674Z,45.90
2018-08-06T08:11:30.663Z,45.90
2018-08-06T08:14:02.376Z,45.60
2018-08-06T08:16:33.744Z,46.90
2018-08-06T08:19:05.647Z,48.10
2018-08-06T08:21:37.329Z,48.00
2018-08-06T08:24:08.846Z,46.40
2018-08-06T08:26:39.681Z,45.40
2018-08-06T08:29:11.309Z,46.90
2018-08-06T08:31:42.832Z,47.50
2018-08-06T08:34:13.631Z,48.40
2018-08-06T08:36:45.732Z,46.40
2018-08-06T08:39:17.510Z,47.20
2018-08-06T08:41:49.223Z,45.30
2018-08-06T08:44:20.752Z,45.30
2018-08-06T08:46:52.312Z,45.00
2018-08-06T08:49:23.802Z,44.60
2018-08-06T08:51:55.507Z,44.30
2018-08-06T08:54:27.224Z,43.70
2018-08-06T08:56:58.870Z,45.10
2018-08-06T08:59:29.569Z,45.50
2018-08-06T09:02:00.222Z,44.30
2018-08-06T09:04:31.757Z,44.50
2018-08-06T09:07:03.440Z,44.00
2018-08-06T09:09:34.857Z,44.30
2018-08-06T09:12:05.602Z,44.50
2018-08-06T09:14:37.218Z,44.60
2018-08-06T09:17:09.814Z,46.80
2018-08-06T09:19:40.583Z,44.60
2018-08-06T09:22:12.222Z,45.60
2018-08-06T09:24:43.797Z,43.20
2018-08-06T09:27:15.462Z,43.50
2018-08-06T09:29:46.890Z,43.20
2018-08-06T09:32:17.598Z,42.50
2018-08-06T09:34:48.973Z,42.90
2018-08-06T09:37:20.640Z,42.20
2018-08-06T09:39:52.207Z,42.60
2018-08-06T09:42:23.708Z,42.80
2018-08-06T09:44:55.790Z,43.80
2018-08-06T09:47:27.393Z,47.30
2018-08-06T09:49:58.845Z,47.20
2018-08-06T09:52:29.643Z,46.60
2018-08-06T09:55:02.738Z,43.70
2018-08-06T09:57:35.202Z,45.80
2018-08-06T10:00:15.300Z,47.40
2018-08-06T10:02:47.329Z,48.30
2018-08-06T10:05:19.390Z,48.60
2018-08-06T10:07:50.744Z,48.80
2018-08-06T10:10:22.607Z,48.90
2018-08-06T10:12:54.224Z,48.70
2018-08-06T10:15:25.742Z,49.00
2018-08-06T10:22:59.737Z,48.10
2018-08-06T10:25:31.359Z,47.20
2018-08-06T10:28:02.983Z,47.60
2018-08-06T10:33:15.808Z,45.20
2018-08-06T10:35:47.200Z,43.50
2018-08-06T10:38:18.798Z,43.50
2018-08-06T10:40:50.380Z,43.20
2018-08-06T10:43:21.837Z,42.80
2018-08-06T10:45:52.459Z,44.40
2018-08-06T10:48:24.023Z,43.50
2018-08-06T10:50:55.831Z,45.60
2018-08-06T10:53:26.612Z,45.00
2018-08-06T10:55:58.249Z,47.00
2018-08-06T10:58:29.672Z,45.60
2018-08-06T11:01:01.223Z,45.60
2018-08-06T11:03:32.651Z,46.20
2018-08-06T11:06:04.438Z,45.40
2018-08-06T11:08:36.188Z,44.30
2018-08-06T11:11:07.713Z,44.90
2018-08-06T11:13:39.428Z,43.50
2018-08-06T11:16:10.910Z,44.30
2018-08-06T11:18:42.389Z,46.60
2018-08-06T11:21:13.748Z,47.80
2018-08-06T11:23:44.863Z,48.20
2018-08-06T11:26:15.556Z,48.00
2018-08-06T11:28:47.206Z,47.10
2018-08-06T11:31:21.762Z,48.90
2018-08-06T11:33:53.616Z,48.90
2018-08-06T11:36:24.705Z,46.70
2018-08-06T11:38:55.861Z,44.30
2018-08-06T11:41:26.585Z,46.10
2018-08-06T11:43:57.892Z,46.50
2018-08-06T11:46:28.550Z,47.50
2018-08-06T11:48:59.962Z,47.50
2018-08-06T11:51:31.401Z,48.70
2018-08-06T11:54:02.817Z,46.40
2018-08-06T11:56:33.594Z,45.30
2018-08-06T11:59:05.086Z,44.90
2018-08-06T12:01:36.525Z,47.80
2018-08-06T12:04:08.223Z,46.10
2018-08-06T12:06:39.716Z,46.80
2018-08-06T12:09:11.737Z,46.60
2018-08-06T12:16:45.720Z,45.00
2018-08-06T12:19:17.226Z,47.90
2018-08-06T12:21:48.705Z,47.20
2018-08-06T12:24:20.397Z,45.30
2018-08-06T12:26:51.756Z,47.10
2018-08-06T12:29:23.038Z,44.40
2018-08-06T12:31:54.692Z,46.50
2018-08-06T12:34:26.221Z,46.50
2018-08-06T12:36:57.766Z,47.50
2018-08-06T12:41:59.665Z,47.50
2018-08-06T12:47:09.017Z,47.60
2018-08-06T12:49:40.665Z,47.80
2018-08-06T12:52:12.059Z,48.50
2018-08-06T12:54:43.755Z,45.60
2018-08-06T12:57:15.334Z,46.80
2018-08-06T12:59:46.912Z,45.40
2018-08-06T13:02:18.681Z,45.00
2018-08-06T13:05:01.575Z,42.80
2018-08-06T13:10:16.604Z,46.60
2018-08-06T13:12:58.838Z,45.30
2018-08-06T13:15:30.439Z,47.10
2018-08-06T13:18:01.755Z,45.50
2018-08-06T13:23:03.748Z,46.10
2018-08-06T13:25:34.981Z,41.70
2018-08-06T13:28:05.894Z,43.50
2018-08-06T13:30:36.341Z,45.00
2018-08-06T13:33:07.840Z,42.00
2018-08-06T13:35:38.415Z,41.00
2018-08-06T13:38:09.595Z,43.70
2018-08-06T13:40:40.770Z,45.80
2018-08-06T13:54:03.819Z,43.60
2018-08-06T13:56:34.342Z,45.10
2018-08-06T13:59:05.765Z,42.30
2018-08-06T14:01:36.912Z,44.00
2018-08-06T14:04:07.835Z,46.20
2018-08-06T14:06:38.328Z,46.90
2018-08-06T14:09:12.616Z,44.40
2018-08-06T14:11:43.735Z,43.90
2018-08-06T14:14:14.991Z,45.00
2018-08-06T14:16:46.278Z,45.60
2018-08-06T14:19:17.860Z,41.00
2018-08-06T14:21:48.556Z,44.50
2018-08-06T14:24:20.018Z,42.70
2018-08-06T14:26:51.506Z,42.90
2018-08-06T14:29:23.208Z,43.70
2018-08-06T14:32:01.615Z,43.30
2018-08-06T14:34:33.228Z,43.80
2018-08-06T14:37:04.765Z,44.80
2018-08-06T14:39:36.209Z,44.20
2018-08-06T14:42:07.700Z,42.10
2018-08-06T14:44:39.590Z,44.80
2018-08-06T14:47:11.220Z,44.70
2018-08-06T14:49:42.644Z,44.40
2018-08-06T14:52:14.351Z,46.00
2018-08-06T14:54:45.834Z,44.20
2018-08-06T14:57:16.530Z,43.60
2018-08-06T14:59:48.233Z,42.20
2018-08-06T15:02:19.752Z,42.80
2018-08-06T15:04:51.455Z,42.00
2018-08-06T15:07:22.900Z,40.90
2018-08-06T15:09:53.684Z,41.20
2018-08-06T15:12:25.206Z,41.90
2018-08-06T15:14:56.713Z,41.30
2018-08-06T15:17:28.233Z,44.50
2018-08-06T15:20:01.745Z,45.90
2018-08-06T15:22:44.736Z,45.70
2018-08-06T15:25:21.360Z,45.40
2018-08-06T15:27:53.201Z,47.50
2018-08-06T15:30:25.581Z,46.40
2018-08-06T15:32:58.082Z,44.90
2018-08-06T15:35:29.697Z,45.40
2018-08-06T15:38:01.978Z,45.50
2018-08-06T15:40:33.475Z,44.90
2018-08-06T15:43:05.004Z,46.20
2018-08-06T15:45:36.629Z,43.50
2018-08-06T15:48:07.821Z,42.30
2018-08-06T15:50:38.586Z,43.00
2018-08-06T15:53:09.924Z,43.30
2018-08-06T15:55:41.375Z,44.10
2018-08-06T15:58:12.853Z,44.80
2018-08-06T16:00:44.473Z,46.40
2018-08-06T16:03:16.009Z,46.80
2018-08-06T16:05:47.419Z,47.40
2018-08-06T16:08:18.839Z,47.80
2018-08-06T16:10:49.541Z,47.30
2018-08-06T16:13:20.889Z,47.70
2018-08-06T16:15:51.614Z,47.40
2018-08-06T16:18:23.444Z,48.10
2018-08-06T16:20:55.221Z,47.10
2018-08-06T16:23:26.722Z,45.10
2018-08-06T16:25:58.225Z,41.40
2018-08-06T16:28:29.757Z,44.20
2018-08-06T16:31:01.507Z,44.50
2018-08-06T16:33:33.592Z,44.70
2018-08-06T16:36:05.233Z,43.80
2018-08-06T16:38:36.703Z,43.10
2018-08-06T16:41:08.385Z,46.20
2018-08-06T16:43:39.871Z,44.60
2018-08-06T16:46:11.281Z,44.80
2018-08-06T16:48:43.252Z,44.50
2018-08-06T16:51:14.732Z,42.30
2018-08-06T16:53:46.207Z,41.80
2018-08-06T16:56:17.709Z,45.40
2018-08-06T16:58:49.001Z,45.80
2018-08-06T17:01:20.665Z,45.40
2018-08-06T17:03:52.241Z,44.50
2018-08-06T17:06:23.715Z,42.30
2018-08-06T17:08:55.226Z,43.00
2018-08-06T17:11:26.728Z,41.70
2018-08-06T17:13:58.314Z,44.30
2018-08-06T17:16:42.697Z,41.00
2018-08-06T17:19:14.453Z,41.40
2018-08-06T17:21:45.881Z,41.20
2018-08-06T17:27:02.922Z,43.00
2018-08-06T17:29:33.976Z,44.30
2018-08-06T17:32:04.999Z,42.00
2018-08-06T18:15:01.460Z,45.00
2018-08-06T18:17:32.492Z,42.60
2018-08-06T18:20:03.519Z,43.60
2018-08-06T18:22:34.626Z,44.60
2018-08-06T18:25:07.427Z,45.70
2018-08-06T18:27:38.797Z,42.30
2018-08-06T18:30:14.882Z,42.30
2018-08-06T18:32:45.473Z,40.60
2018-08-06T18:35:17.855Z,41.10
2018-08-06T18:37:48.440Z,42.70
2018-08-06T18:40:20.760Z,41.00
2018-08-06T18:42:51.828Z,42.00
2018-08-06T18:45:22.661Z,40.60
2018-08-06T18:47:53.782Z,40.30
2018-08-06T18:50:24.914Z,41.40
2018-08-06T18:52:56.304Z,41.70
2018-08-06T18:55:27.627Z,42.20
2018-08-06T18:57:58.749Z,42.70
2018-08-06T19:00:29.799Z,41.10
2018-08-06T19:03:00.896Z,40.90
2018-08-06T19:05:31.352Z,40.70
2018-08-06T19:08:02.600Z,40.40
2018-08-06T19:10:33.740Z,40.60
2018-08-06T19:13:10.220Z,39.60
2018-08-06T19:15:41.768Z,39.30
2018-08-06T19:19:20.044Z,39.50
2018-08-06T19:21:52.333Z,41.00
2018-08-06T19:24:28.576Z,40.20
2018-08-06T19:26:59.645Z,41.30
2018-08-06T19:29:30.775Z,40.40
2018-08-06T19:32:02.357Z,41.70
2018-08-06T19:34:33.806Z,42.10
2018-08-06T19:42:12.823Z,41.10
2018-08-06T19:44:43.555Z,42.80
2018-08-06T19:47:15.204Z,41.90
2018-08-06T19:49:51.434Z,43.50
2018-08-06T19:52:23.744Z,44.50
2018-08-06T19:54:59.656Z,43.10
2018-08-06T19:57:31.193Z,43.30
2018-08-06T20:00:02.827Z,44.20
2018-08-06T20:08:14.588Z,46.20
2018-08-06T20:10:45.718Z,46.00
2018-08-06T20:13:23.208Z,46.80
2018-08-06T20:18:41.218Z,47.10
2018-08-06T20:21:12.470Z,46.20
2018-08-06T20:23:43.671Z,47.00
2018-08-06T20:26:14.755Z,46.60
2018-08-06T20:33:47.748Z,45.80
2018-08-06T20:36:18.860Z,46.90
2018-08-06T20:38:49.766Z,46.80
2018-08-06T20:41:20.861Z,46.80
2018-08-06T20:43:51.355Z,47.10
2018-08-06T20:46:29.624Z,47.40
2018-08-06T20:49:00.748Z,47.80
2018-08-06T20:51:31.875Z,47.90
2018-08-06T20:54:02.383Z,48.00
2018-08-06T20:56:33.647Z,48.40
2018-08-06T20:59:04.710Z,48.30
2018-08-06T21:07:45.616Z,48.50
2018-08-06T21:10:17.567Z,48.70
2018-08-06T21:15:37.781Z,47.20
2018-08-06T21:18:09.275Z,47.70
2018-08-06T21:20:40.594Z,45.40
2018-08-06T21:23:11.723Z,45.80
2018-08-06T21:25:43.312Z,44.90
2018-08-06T21:28:14.619Z,45.90
2018-08-06T21:30:45.798Z,45.00
2018-08-06T21:33:16.869Z,44.50
2018-08-06T21:35:47.512Z,44.10
2018-08-06T21:38:18.625Z,44.90
2018-08-06T21:40:49.710Z,45.10
2018-08-06T21:43:20.828Z,44.90
2018-08-06T21:45:51.473Z,44.60
2018-08-06T21:48:22.573Z,43.40
2018-08-06T21:50:53.676Z,45.20
2018-08-06T21:53:24.714Z,44.90
2018-08-06T21:55:55.705Z,44.50
2018-08-06T21:58:26.688Z,45.10
2018-08-06T22:00:57.717Z,44.30
2018-08-06T22:03:28.811Z,44.10
2018-08-06T22:05:59.840Z,45.10
2018-08-06T22:08:30.319Z,45.50
2018-08-06T22:11:01.582Z,45.30
2018-08-06T22:13:32.711Z,44.00
2018-08-06T22:16:03.716Z,44.50
2018-08-06T22:18:35.191Z,44.20
2018-08-06T22:21:11.551Z,44.20
2018-08-06T22:23:42.670Z,43.80
2018-08-06T22:26:13.766Z,44.50
2018-08-06T22:31:15.717Z,45.20
2018-08-06T22:33:46.847Z,45.90
2018-08-06T22:38:55.500Z,46.00
2018-08-06T22:41:26.642Z,46.40
2018-08-06T22:43:57.708Z,46.40
2018-08-06T22:46:29.359Z,47.00
2018-08-06T22:49:00.645Z,47.70
2018-08-06T22:51:38.656Z,47.50
2018-08-06T22:54:09.700Z,46.90
2018-08-06T22:56:40.730Z,47.30
2018-08-06T22:59:11.850Z,48.30
2018-08-06T23:01:42.377Z,48.40
2018-08-06T23:04:13.672Z,48.10
2018-08-06T23:06:44.801Z,48.60
2018-08-06T23:09:16.051Z,48.40
2018-08-06T23:11:47.550Z,48.20
2018-08-06T23:14:18.775Z,48.50
2018-08-06T23:16:50.305Z,48.90
2018-08-06T23:19:21.740Z,48.90
2018-08-06T23:21:54.320Z,49.30
2018-08-06T23:24:25.793Z,48.80
2018-08-06T23:26:57.278Z,49.50
2018-08-06T23:31:21.312Z,48.90
2018-08-06T23:33:52.571Z,49.30
2018-08-06T23:36:23.686Z,48.90
2018-08-06T23:38:55.308Z,48.70
2018-08-06T23:41:26.453Z,49.00
2018-08-06T23:43:57.698Z,48.70
2018-08-06T23:46:28.733Z,49.00
2018-08-06T23:48:59.832Z,49.90
2018-08-06T23:51:30.321Z,49.40
2018-08-06T23:54:01.657Z,48.40
2018-08-06T23:56:32.643Z,49.10
2018-08-06T23:59:03.665Z,48.20
